sensor_id;sensor_type;location;lat;lon;timestamp;pressure;altitude;pressure_sealevel;temperature;humidity
42601;BME280;28229;48.856;9.088;2023-09-18T00:00:58;97360.81;;;20.73;68.56
42601;BME280;28229;48.856;9.088;2023-09-18T00:03:24;97360.03;;;20.73;68.55
42601;BME280;28229;48.856;9.088;2023-09-18T00:05:51;97361.69;;;20.69;68.76
42601;BME280;28229;48.856;9.088;2023-09-18T00:08:18;97360.78;;;20.60;69.03
42601;BME280;28229;48.856;9.088;2023-09-18T00:10:53;97349.09;;;20.56;69.16
42601;BME280;28229;48.856;9.088;2023-09-18T00:13:19;97353.75;;;20.50;69.56
42601;BME280;28229;48.856;9.088;2023-09-18T00:15:46;97356.44;;;20.50;69.38
42601;BME280;28229;48.856;9.088;2023-09-18T00:18:16;97357.88;;;20.42;70.05
42601;BME280;28229;48.856;9.088;2023-09-18T00:20:42;97342.97;;;20.41;70.17
42601;BME280;28229;48.856;9.088;2023-09-18T00:23:09;97339.78;;;20.39;70.04
42601;BME280;28229;48.856;9.088;2023-09-18T00:25:39;97331.06;;;20.33;70.77
42601;BME280;28229;48.856;9.088;2023-09-18T00:28:08;97331.34;;;20.32;70.88
42601;BME280;28229;48.856;9.088;2023-09-18T00:30:34;97327.91;;;20.31;71.06
42601;BME280;28229;48.856;9.088;2023-09-18T00:33:01;97324.03;;;20.24;71.59
42601;BME280;28229;48.856;9.088;2023-09-18T00:35:27;97320.28;;;20.25;71.62
42601;BME280;28229;48.856;9.088;2023-09-18T00:37:53;97320.38;;;20.20;72.25
42601;BME280;28229;48.856;9.088;2023-09-18T00:40:20;97313.94;;;20.21;72.36
42601;BME280;28229;48.856;9.088;2023-09-18T00:42:46;97310.56;;;20.15;72.42
42601;BME280;28229;48.856;9.088;2023-09-18T00:45:12;97312.75;;;20.13;72.63
42601;BME280;28229;48.856;9.088;2023-09-18T00:47:41;97313.03;;;20.11;73.14
42601;BME280;28229;48.856;9.088;2023-09-18T00:50:09;97308.06;;;20.05;73.48
42601;BME280;28229;48.856;9.088;2023-09-18T00:52:38;97307.88;;;20.01;73.42
42601;BME280;28229;48.856;9.088;2023-09-18T00:55:05;97310.72;;;19.91;73.84
42601;BME280;28229;48.856;9.088;2023-09-18T00:57:34;97300.94;;;19.86;73.68
42601;BME280;28229;48.856;9.088;2023-09-18T01:00:00;97297.69;;;19.89;74.33
42601;BME280;28229;48.856;9.088;2023-09-18T01:02:27;97285.09;;;19.76;74.93
42601;BME280;28229;48.856;9.088;2023-09-18T01:04:53;97287.59;;;19.67;75.00
42601;BME280;28229;48.856;9.088;2023-09-18T01:07:20;97281.47;;;19.67;75.28
42601;BME280;28229;48.856;9.088;2023-09-18T01:09:46;97282.34;;;19.62;75.48
42601;BME280;28229;48.856;9.088;2023-09-18T01:12:19;97279.66;;;19.62;75.83
42601;BME280;28229;48.856;9.088;2023-09-18T01:15:07;97286.53;;;19.68;75.42
42601;BME280;28229;48.856;9.088;2023-09-18T01:17:37;97286.53;;;19.68;75.71
42601;BME280;28229;48.856;9.088;2023-09-18T01:20:10;97298.84;;;19.64;75.75
42601;BME280;28229;48.856;9.088;2023-09-18T01:22:36;97292.94;;;19.67;75.23
42601;BME280;28229;48.856;9.088;2023-09-18T01:25:03;97293.22;;;19.66;75.70
42601;BME280;28229;48.856;9.088;2023-09-18T01:27:29;97286.53;;;19.68;75.30
42601;BME280;28229;48.856;9.088;2023-09-18T01:29:55;97284.59;;;19.74;75.16
42601;BME280;28229;48.856;9.088;2023-09-18T01:32:24;97291.69;;;19.78;75.19
42601;BME280;28229;48.856;9.088;2023-09-18T01:34:55;97300.72;;;19.83;74.88
42601;BME280;28229;48.856;9.088;2023-09-18T01:37:27;97307.41;;;19.80;74.99
42601;BME280;28229;48.856;9.088;2023-09-18T01:39:54;97297.97;;;19.88;73.70
42601;BME280;28229;48.856;9.088;2023-09-18T01:42:25;97305.50;;;20.00;72.92
42601;BME280;28229;48.856;9.088;2023-09-18T01:44:53;97297.81;;;20.12;72.36
42601;BME280;28229;48.856;9.088;2023-09-18T01:47:20;97320.59;;;20.23;72.17
42601;BME280;28229;48.856;9.088;2023-09-18T01:49:47;97354.22;;;20.38;72.03
42601;BME280;28229;48.856;9.088;2023-09-18T01:52:13;97337.41;;;20.51;70.94
42601;BME280;28229;48.856;9.088;2023-09-18T01:54:41;97342.06;;;20.60;70.30
42601;BME280;28229;48.856;9.088;2023-09-18T01:57:07;97337.84;;;20.72;69.51
42601;BME280;28229;48.856;9.088;2023-09-18T01:59:34;97315.09;;;20.75;69.09
42601;BME280;28229;48.856;9.088;2023-09-18T02:02:01;97307.47;;;20.82;68.72
42601;BME280;28229;48.856;9.088;2023-09-18T02:04:33;97280.44;;;20.84;69.94
42601;BME280;28229;48.856;9.088;2023-09-18T02:06:59;97253.06;;;20.87;69.11
42601;BME280;28229;48.856;9.088;2023-09-18T02:09:25;97232.25;;;20.98;68.64
42601;BME280;28229;48.856;9.088;2023-09-18T02:11:51;97241.47;;;21.05;69.27
42601;BME280;28229;48.856;9.088;2023-09-18T02:14:17;97214.63;;;20.97;71.18
42601;BME280;28229;48.856;9.088;2023-09-18T02:16:44;97209.09;;;20.93;72.59
42601;BME280;28229;48.856;9.088;2023-09-18T02:19:12;97164.59;;;20.75;74.60
42601;BME280;28229;48.856;9.088;2023-09-18T02:21:40;97189.09;;;20.68;75.92
42601;BME280;28229;48.856;9.088;2023-09-18T02:24:07;97225.00;;;20.62;77.30
42601;BME280;28229;48.856;9.088;2023-09-18T02:26:34;97237.38;;;20.58;78.75
42601;BME280;28229;48.856;9.088;2023-09-18T02:29:04;97303.50;;;20.52;81.00
42601;BME280;28229;48.856;9.088;2023-09-18T02:31:30;97278.94;;;20.36;82.16
42601;BME280;28229;48.856;9.088;2023-09-18T02:33:56;97277.44;;;20.30;82.15
42601;BME280;28229;48.856;9.088;2023-09-18T02:36:22;97271.69;;;20.23;81.65
42601;BME280;28229;48.856;9.088;2023-09-18T02:38:49;97267.94;;;20.10;83.18
42601;BME280;28229;48.856;9.088;2023-09-18T02:41:15;97287.41;;;20.10;82.95
42601;BME280;28229;48.856;9.088;2023-09-18T02:43:50;97293.94;;;20.04;82.82
42601;BME280;28229;48.856;9.088;2023-09-18T02:46:17;97293.81;;;19.95;83.32
42601;BME280;28229;48.856;9.088;2023-09-18T02:48:44;97304.88;;;19.89;84.75
42601;BME280;28229;48.856;9.088;2023-09-18T02:51:11;97319.13;;;19.84;86.72
42601;BME280;28229;48.856;9.088;2023-09-18T02:53:37;97302.28;;;19.84;86.77
42601;BME280;28229;48.856;9.088;2023-09-18T02:56:03;97290.41;;;19.76;87.72
42601;BME280;28229;48.856;9.088;2023-09-18T02:58:29;97292.50;;;19.60;88.02
42601;BME280;28229;48.856;9.088;2023-09-18T03:00:57;97298.84;;;19.64;87.03
42601;BME280;28229;48.856;9.088;2023-09-18T03:03:24;97294.31;;;19.65;87.64
42601;BME280;28229;48.856;9.088;2023-09-18T03:05:51;97294.41;;;19.59;87.21
42601;BME280;28229;48.856;9.088;2023-09-18T03:08:17;97280.06;;;19.55;87.89
42601;BME280;28229;48.856;9.088;2023-09-18T03:10:44;97283.03;;;19.54;87.99
42601;BME280;28229;48.856;9.088;2023-09-18T03:13:13;97277.06;;;19.57;87.36
42601;BME280;28229;48.856;9.088;2023-09-18T03:15:39;97282.41;;;19.57;87.84
42601;BME280;28229;48.856;9.088;2023-09-18T03:18:06;97275.50;;;19.56;87.16
42601;BME280;28229;48.856;9.088;2023-09-18T03:20:34;97261.69;;;19.54;87.43
42601;BME280;28229;48.856;9.088;2023-09-18T03:23:08;97250.88;;;19.45;88.14
42601;BME280;28229;48.856;9.088;2023-09-18T03:25:35;97248.00;;;19.42;88.50
42601;BME280;28229;48.856;9.088;2023-09-18T03:28:03;97253.34;;;19.42;88.82
42601;BME280;28229;48.856;9.088;2023-09-18T03:30:32;97261.97;;;19.33;89.13
42601;BME280;28229;48.856;9.088;2023-09-18T03:32:58;97267.56;;;19.18;90.62
42601;BME280;28229;48.856;9.088;2023-09-18T03:37:56;97287.22;;;19.22;90.39
42601;BME280;28229;48.856;9.088;2023-09-18T03:40:22;97286.28;;;19.13;91.41
42601;BME280;28229;48.856;9.088;2023-09-18T03:42:48;97301.75;;;19.11;91.56
42601;BME280;28229;48.856;9.088;2023-09-18T03:45:15;97308.53;;;19.03;90.98
42601;BME280;28229;48.856;9.088;2023-09-18T03:47:45;97320.59;;;19.00;91.01
42601;BME280;28229;48.856;9.088;2023-09-18T03:50:12;97341.41;;;18.98;90.58
42601;BME280;28229;48.856;9.088;2023-09-18T03:52:39;97358.41;;;19.02;90.23
42601;BME280;28229;48.856;9.088;2023-09-18T03:55:07;97374.19;;;18.99;90.63
42601;BME280;28229;48.856;9.088;2023-09-18T03:57:34;97383.84;;;18.95;90.75
42601;BME280;28229;48.856;9.088;2023-09-18T04:00:00;97399.75;;;19.00;90.83
42601;BME280;28229;48.856;9.088;2023-09-18T04:02:26;97409.13;;;18.97;91.40
42601;BME280;28229;48.856;9.088;2023-09-18T04:04:55;97403.56;;;18.94;92.15
42601;BME280;28229;48.856;9.088;2023-09-18T04:07:22;97399.06;;;18.89;94.45
42601;BME280;28229;48.856;9.088;2023-09-18T04:09:48;97396.19;;;18.80;95.08
42601;BME280;28229;48.856;9.088;2023-09-18T04:12:14;97392.81;;;18.75;96.24
42601;BME280;28229;48.856;9.088;2023-09-18T04:14:40;97393.06;;;18.73;97.13
42601;BME280;28229;48.856;9.088;2023-09-18T04:17:06;97380.06;;;18.72;97.94
42601;BME280;28229;48.856;9.088;2023-09-18T04:19:32;97369.41;;;18.72;98.07
42601;BME280;28229;48.856;9.088;2023-09-18T04:22:01;97363.25;;;18.71;97.39
42601;BME280;28229;48.856;9.088;2023-09-18T04:24:27;97355.00;;;18.73;98.34
42601;BME280;28229;48.856;9.088;2023-09-18T04:26:53;97346.50;;;18.71;98.25
42601;BME280;28229;48.856;9.088;2023-09-18T04:29:20;97330.16;;;18.77;98.31
42601;BME280;28229;48.856;9.088;2023-09-18T04:31:48;97305.69;;;18.75;99.44
42601;BME280;28229;48.856;9.088;2023-09-18T04:34:14;97301.94;;;18.76;100.00
42601;BME280;28229;48.856;9.088;2023-09-18T04:36:41;97292.41;;;18.70;98.58
42601;BME280;28229;48.856;9.088;2023-09-18T04:39:09;97266.00;;;18.74;98.86
42601;BME280;28229;48.856;9.088;2023-09-18T04:41:36;97239.78;;;18.81;99.16
42601;BME280;28229;48.856;9.088;2023-09-18T04:44:05;97214.22;;;18.80;99.06
42601;BME280;28229;48.856;9.088;2023-09-18T04:49:41;97227.66;;;18.70;99.34
42601;BME280;28229;48.856;9.088;2023-09-18T04:52:07;97245.25;;;18.71;97.86
42601;BME280;28229;48.856;9.088;2023-09-18T04:54:35;97251.56;;;18.75;97.96
42601;BME280;28229;48.856;9.088;2023-09-18T04:57:01;97271.19;;;18.84;98.20
42601;BME280;28229;48.856;9.088;2023-09-18T04:59:27;97270.69;;;18.82;97.98
42601;BME280;28229;48.856;9.088;2023-09-18T05:01:53;97263.75;;;18.86;97.61
42601;BME280;28229;48.856;9.088;2023-09-18T05:04:19;97257.63;;;18.80;98.31
42601;BME280;28229;48.856;9.088;2023-09-18T05:06:46;97244.56;;;18.84;99.36
42601;BME280;28229;48.856;9.088;2023-09-18T05:09:12;97236.28;;;18.86;100.00
42601;BME280;28229;48.856;9.088;2023-09-18T05:11:38;97243.28;;;18.81;100.00
42601;BME280;28229;48.856;9.088;2023-09-18T05:14:06;97251.66;;;18.70;99.33
42601;BME280;28229;48.856;9.088;2023-09-18T05:16:32;97260.22;;;18.67;100.00
42601;BME280;28229;48.856;9.088;2023-09-18T05:18:58;97277.94;;;18.57;100.00
42601;BME280;28229;48.856;9.088;2023-09-18T05:21:26;97289.66;;;18.56;100.00
42601;BME280;28229;48.856;9.088;2023-09-18T05:23:53;97293.78;;;18.43;100.00
42601;BME280;28229;48.856;9.088;2023-09-18T05:26:22;97298.75;;;18.50;100.00
42601;BME280;28229;48.856;9.088;2023-09-18T05:28:50;97289.81;;;18.41;100.00
42601;BME280;28229;48.856;9.088;2023-09-18T05:31:16;97290.97;;;18.35;100.00
42601;BME280;28229;48.856;9.088;2023-09-18T05:33:43;97284.53;;;18.36;100.00
42601;BME280;28229;48.856;9.088;2023-09-18T05:36:09;97292.31;;;18.32;100.00
42601;BME280;28229;48.856;9.088;2023-09-18T05:38:35;97282.47;;;18.33;100.00
42601;BME280;28229;48.856;9.088;2023-09-18T05:41:01;97283.44;;;18.42;100.00
42601;BME280;28229;48.856;9.088;2023-09-18T05:43:27;97287.16;;;18.41;100.00
42601;BME280;28229;48.856;9.088;2023-09-18T05:45:54;97291.13;;;18.43;100.00
42601;BME280;28229;48.856;9.088;2023-09-18T05:48:20;97288.63;;;18.52;98.80
42601;BME280;28229;48.856;9.088;2023-09-18T05:50:46;97295.31;;;18.50;98.61
42601;BME280;28229;48.856;9.088;2023-09-18T05:53:13;97296.25;;;18.59;95.66
42601;BME280;28229;48.856;9.088;2023-09-18T05:55:39;97303.41;;;18.63;95.00
42601;BME280;28229;48.856;9.088;2023-09-18T05:58:06;97301.25;;;18.65;95.11
42601;BME280;28229;48.856;9.088;2023-09-18T06:00:33;97302.84;;;18.67;94.83
42601;BME280;28229;48.856;9.088;2023-09-18T06:02:59;97285.66;;;18.78;94.10
42601;BME280;28229;48.856;9.088;2023-09-18T06:05:26;97287.50;;;18.82;94.19
42601;BME280;28229;48.856;9.088;2023-09-18T06:07:52;97277.00;;;18.91;93.86
42601;BME280;28229;48.856;9.088;2023-09-18T06:10:19;97271.44;;;18.88;92.92
42601;BME280;28229;48.856;9.088;2023-09-18T06:12:45;97264.75;;;18.90;92.12
42601;BME280;28229;48.856;9.088;2023-09-18T06:15:11;97272.09;;;18.98;92.65
42601;BME280;28229;48.856;9.088;2023-09-18T06:17:39;97273.09;;;19.02;92.67
42601;BME280;28229;48.856;9.088;2023-09-18T06:20:07;97280.59;;;19.00;91.63
42601;BME280;28229;48.856;9.088;2023-09-18T06:22:37;97279.22;;;19.03;91.98
42601;BME280;28229;48.856;9.088;2023-09-18T06:25:05;97279.72;;;18.86;92.41
42601;BME280;28229;48.856;9.088;2023-09-18T06:27:37;97291.38;;;18.90;93.02
42601;BME280;28229;48.856;9.088;2023-09-18T06:30:05;97289.28;;;18.87;92.96
42601;BME280;28229;48.856;9.088;2023-09-18T06:32:31;97283.97;;;18.87;91.95
42601;BME280;28229;48.856;9.088;2023-09-18T06:34:58;97288.22;;;18.88;91.53
42601;BME280;28229;48.856;9.088;2023-09-18T06:37:24;97294.56;;;18.92;91.12
42601;BME280;28229;48.856;9.088;2023-09-18T06:39:51;97296.78;;;18.85;91.57
42601;BME280;28229;48.856;9.088;2023-09-18T06:42:18;97295.06;;;18.94;91.13
42601;BME280;28229;48.856;9.088;2023-09-18T06:44:44;97304.09;;;18.98;91.29
42601;BME280;28229;48.856;9.088;2023-09-18T06:47:11;97305.81;;;19.08;90.17
42601;BME280;28229;48.856;9.088;2023-09-18T06:49:37;97302.88;;;19.10;90.34
42601;BME280;28229;48.856;9.088;2023-09-18T06:52:03;97299.09;;;19.11;89.26
42601;BME280;28229;48.856;9.088;2023-09-18T06:54:30;97302.78;;;19.15;89.21
42601;BME280;28229;48.856;9.088;2023-09-18T06:56:56;97299.03;;;19.16;88.77
42601;BME280;28229;48.856;9.088;2023-09-18T06:59:23;97302.66;;;19.25;88.57
42601;BME280;28229;48.856;9.088;2023-09-18T07:01:49;97305.22;;;19.30;86.84
42601;BME280;28229;48.856;9.088;2023-09-18T07:04:15;97302.56;;;19.30;86.91
42601;BME280;28229;48.856;9.088;2023-09-18T07:06:41;97304.59;;;19.38;nan
42601;BME280;28229;48.856;9.088;2023-09-18T07:09:07;97316.75;;;19.45;87.16
42601;BME280;28229;48.856;9.088;2023-09-18T07:11:37;97323.31;;;19.52;86.70
42601;BME280;28229;48.856;9.088;2023-09-18T07:14:04;97319.47;;;19.58;85.62
42601;BME280;28229;48.856;9.088;2023-09-18T07:16:32;97316.03;;;19.58;86.20
42601;BME280;28229;48.856;9.088;2023-09-18T07:18:59;97328.50;;;19.63;84.92
42601;BME280;28229;48.856;9.088;2023-09-18T07:21:26;97322.78;;;19.69;84.13
42601;BME280;28229;48.856;9.088;2023-09-18T07:23:54;97330.84;;;19.64;82.61
42601;BME280;28229;48.856;9.088;2023-09-18T07:26:21;97340.38;;;19.70;82.70
42601;BME280;28229;48.856;9.088;2023-09-18T07:28:47;97332.84;;;19.77;82.95
42601;BME280;28229;48.856;9.088;2023-09-18T07:31:14;97339.25;;;19.76;83.52
42601;BME280;28229;48.856;9.088;2023-09-18T07:33:41;97353.06;;;19.78;84.36
42601;BME280;28229;48.856;9.088;2023-09-18T07:36:08;97362.97;;;19.78;83.77
42601;BME280;28229;48.856;9.088;2023-09-18T07:38:36;97358.94;;;19.81;83.89
42601;BME280;28229;48.856;9.088;2023-09-18T07:41:03;97354.69;;;19.80;83.08
42601;BME280;28229;48.856;9.088;2023-09-18T07:43:29;97357.84;;;19.82;82.55
42601;BME280;28229;48.856;9.088;2023-09-18T07:45:55;97359.94;;;19.85;80.73
42601;BME280;28229;48.856;9.088;2023-09-18T07:48:22;97380.66;;;19.93;80.83
42601;BME280;28229;48.856;9.088;2023-09-18T07:50:49;97383.19;;;19.98;80.68
42601;BME280;28229;48.856;9.088;2023-09-18T07:53:15;97384.81;;;19.99;80.55
42601;BME280;28229;48.856;9.088;2023-09-18T07:55:42;97391.75;;;20.00;80.58
42601;BME280;28229;48.856;9.088;2023-09-18T07:58:09;97390.06;;;20.04;81.76
42601;BME280;28229;48.856;9.088;2023-09-18T08:00:35;97391.84;;;20.09;81.32
42601;BME280;28229;48.856;9.088;2023-09-18T08:03:01;97395.25;;;20.14;80.83
42601;BME280;28229;48.856;9.088;2023-09-18T08:05:28;97396.72;;;20.21;80.68
42601;BME280;28229;48.856;9.088;2023-09-18T08:07:55;97390.81;;;20.24;79.80
42601;BME280;28229;48.856;9.088;2023-09-18T08:10:23;97387.25;;;20.28;80.33
42601;BME280;28229;48.856;9.088;2023-09-18T08:12:49;97392.22;;;20.35;80.59
42601;BME280;28229;48.856;9.088;2023-09-18T08:15:23;97393.00;;;20.35;79.92
42601;BME280;28229;48.856;9.088;2023-09-18T08:17:49;97403.47;;;20.32;79.60
42601;BME280;28229;48.856;9.088;2023-09-18T08:20:15;97411.41;;;20.37;79.80
42601;BME280;28229;48.856;9.088;2023-09-18T08:22:42;97413.28;;;20.37;78.63
42601;BME280;28229;48.856;9.088;2023-09-18T08:25:10;97426.44;;;20.33;76.94
42601;BME280;28229;48.856;9.088;2023-09-18T08:27:37;97424.84;;;20.32;76.60
42601;BME280;28229;48.856;9.088;2023-09-18T08:30:08;97423.19;;;20.36;76.72
42601;BME280;28229;48.856;9.088;2023-09-18T08:32:39;97433.78;;;20.41;75.09
42601;BME280;28229;48.856;9.088;2023-09-18T08:35:06;97446.44;;;20.35;75.57
42601;BME280;28229;48.856;9.088;2023-09-18T08:37:34;97456.69;;;20.28;75.89
42601;BME280;28229;48.856;9.088;2023-09-18T08:40:01;97459.97;;;20.25;75.76
42601;BME280;28229;48.856;9.088;2023-09-18T08:42:38;97451.75;;;20.22;76.56
42601;BME280;28229;48.856;9.088;2023-09-18T08:45:08;97442.41;;;20.19;77.20
42601;BME280;28229;48.856;9.088;2023-09-18T08:47:35;97446.91;;;20.05;77.92
42601;BME280;28229;48.856;9.088;2023-09-18T08:50:02;97455.81;;;20.00;78.70
42601;BME280;28229;48.856;9.088;2023-09-18T08:52:31;97452.50;;;19.89;79.14
42601;BME280;28229;48.856;9.088;2023-09-18T08:54:59;97447.13;;;19.70;81.64
42601;BME280;28229;48.856;9.088;2023-09-18T08:57:27;97455.19;;;19.65;83.22
42601;BME280;28229;48.856;9.088;2023-09-18T08:59:55;97445.03;;;19.67;83.99
42601;BME280;28229;48.856;9.088;2023-09-18T09:02:21;97444.53;;;19.65;83.17
42601;BME280;28229;48.856;9.088;2023-09-18T09:04:47;97461.88;;;19.44;84.41
42601;BME280;28229;48.856;9.088;2023-09-18T09:07:14;97474.00;;;19.36;84.50
42601;BME280;28229;48.856;9.088;2023-09-18T09:09:40;97470.56;;;19.30;86.69
42601;BME280;28229;48.856;9.088;2023-09-18T09:12:08;97478.31;;;19.08;86.45
42601;BME280;28229;48.856;9.088;2023-09-18T09:14:34;97486.25;;;19.13;86.98
42601;BME280;28229;48.856;9.088;2023-09-18T09:17:00;97491.88;;;19.11;88.71
42601;BME280;28229;48.856;9.088;2023-09-18T09:19:31;97494.75;;;19.15;90.09
42601;BME280;28229;48.856;9.088;2023-09-18T09:21:59;97497.94;;;19.17;89.64
42601;BME280;28229;48.856;9.088;2023-09-18T09:24:40;97488.88;;;19.18;90.12
42601;BME280;28229;48.856;9.088;2023-09-18T09:27:06;97482.00;;;19.12;90.09
42601;BME280;28229;48.856;9.088;2023-09-18T09:29:32;97475.94;;;19.06;90.26
42601;BME280;28229;48.856;9.088;2023-09-18T09:32:17;97477.63;;;18.97;91.94
42601;BME280;28229;48.856;9.088;2023-09-18T09:34:44;97480.38;;;18.87;93.04
42601;BME280;28229;48.856;9.088;2023-09-18T09:37:10;97476.22;;;18.75;94.44
42601;BME280;28229;48.856;9.088;2023-09-18T09:39:48;97464.41;;;18.57;95.35
42601;BME280;28229;48.856;9.088;2023-09-18T09:42:20;97453.25;;;18.50;96.20
42601;BME280;28229;48.856;9.088;2023-09-18T09:45:05;97449.59;;;18.41;97.99
42601;BME280;28229;48.856;9.088;2023-09-18T09:47:38;97443.19;;;18.47;99.04
42601;BME280;28229;48.856;9.088;2023-09-18T09:50:09;97443.97;;;18.48;96.49
42601;BME280;28229;48.856;9.088;2023-09-18T09:52:36;97453.44;;;18.59;98.67
42601;BME280;28229;48.856;9.088;2023-09-18T09:55:22;97457.19;;;18.58;99.82
42601;BME280;28229;48.856;9.088;2023-09-18T09:57:51;97449.44;;;18.61;99.97
42601;BME280;28229;48.856;9.088;2023-09-18T10:00:17;97439.78;;;18.65;100.00
42601;BME280;28229;48.856;9.088;2023-09-18T10:02:58;97429.03;;;18.76;100.00
42601;BME280;28229;48.856;9.088;2023-09-18T10:05:27;97427.38;;;18.80;100.00
42601;BME280;28229;48.856;9.088;2023-09-18T10:07:57;97424.19;;;18.83;100.00
42601;BME280;28229;48.856;9.088;2023-09-18T10:10:29;97425.75;;;18.84;100.00
42601;BME280;28229;48.856;9.088;2023-09-18T10:13:01;97427.25;;;18.95;99.27
42601;BME280;28229;48.856;9.088;2023-09-18T10:15:33;97441.75;;;18.84;97.88
42601;BME280;28229;48.856;9.088;2023-09-18T10:18:00;97472.31;;;18.62;99.23
42601;BME280;28229;48.856;9.088;2023-09-18T10:20:28;97501.09;;;18.60;99.13
42601;BME280;28229;48.856;9.088;2023-09-18T10:22:56;97495.88;;;18.50;99.89
42601;BME280;28229;48.856;9.088;2023-09-18T10:25:29;97495.16;;;18.39;100.00
42601;BME280;28229;48.856;9.088;2023-09-18T10:27:58;97499.72;;;18.34;100.00
42601;BME280;28229;48.856;9.088;2023-09-18T10:30:29;97496.59;;;18.26;100.00
42601;BME280;28229;48.856;9.088;2023-09-18T10:32:56;97509.38;;;18.24;100.00
42601;BME280;28229;48.856;9.088;2023-09-18T10:35:23;97497.44;;;18.22;100.00
42601;BME280;28229;48.856;9.088;2023-09-18T10:37:49;97512.34;;;18.18;100.00
42601;BME280;28229;48.856;9.088;2023-09-18T10:40:18;97518.75;;;18.17;100.00
42601;BME280;28229;48.856;9.088;2023-09-18T10:42:45;97515.25;;;18.21;100.00
42601;BME280;28229;48.856;9.088;2023-09-18T10:45:12;97499.28;;;18.21;100.00
42601;BME280;28229;48.856;9.088;2023-09-18T10:47:40;97488.91;;;18.20;100.00
42601;BME280;28229;48.856;9.088;2023-09-18T10:50:08;97477.91;;;18.32;100.00
42601;BME280;28229;48.856;9.088;2023-09-18T10:52:36;97483.81;;;18.23;100.00
42601;BME280;28229;48.856;9.088;2023-09-18T10:55:12;97476.34;;;18.31;100.00
42601;BME280;28229;48.856;9.088;2023-09-18T10:57:50;97476.56;;;18.34;100.00
42601;BME280;28229;48.856;9.088;2023-09-18T11:00:17;97461.91;;;18.37;100.00
42601;BME280;28229;48.856;9.088;2023-09-18T11:02:44;97471.97;;;18.45;100.00
42601;BME280;28229;48.856;9.088;2023-09-18T11:05:11;97469.00;;;18.46;100.00
42601;BME280;28229;48.856;9.088;2023-09-18T11:07:38;97477.78;;;18.47;100.00
42601;BME280;28229;48.856;9.088;2023-09-18T11:10:26;97471.41;;;18.43;100.00
42601;BME280;28229;48.856;9.088;2023-09-18T11:12:53;97461.34;;;18.40;100.00
42601;BME280;28229;48.856;9.088;2023-09-18T11:15:32;97439.41;;;18.48;100.00
42601;BME280;28229;48.856;9.088;2023-09-18T11:18:01;97448.97;;;18.54;100.00
42601;BME280;28229;48.856;9.088;2023-09-18T11:20:28;97459.16;;;18.47;100.00
42601;BME280;28229;48.856;9.088;2023-09-18T11:22:58;97459.69;;;18.44;100.00
42601;BME280;28229;48.856;9.088;2023-09-18T11:28:16;97476.75;;;18.43;100.00
42601;BME280;28229;48.856;9.088;2023-09-18T11:30:55;97474.91;;;18.43;100.00
42601;BME280;28229;48.856;9.088;2023-09-18T11:39:01;97481.75;;;18.50;100.00
42601;BME280;28229;48.856;9.088;2023-09-18T11:41:32;97491.88;;;18.53;98.32
42601;BME280;28229;48.856;9.088;2023-09-18T11:44:31;97484.09;;;18.56;95.67
42601;BME280;28229;48.856;9.088;2023-09-18T11:46:59;97492.06;;;18.61;96.42
42601;BME280;28229;48.856;9.088;2023-09-18T11:49:27;97510.44;;;18.63;96.11
42601;BME280;28229;48.856;9.088;2023-09-18T11:51:58;97503.47;;;18.67;97.51
42601;BME280;28229;48.856;9.088;2023-09-18T11:54:26;97500.53;;;18.69;97.24
42601;BME280;28229;48.856;9.088;2023-09-18T11:56:53;97498.63;;;18.69;96.68
42601;BME280;28229;48.856;9.088;2023-09-18T11:59:33;97495.94;;;18.74;96.28
42601;BME280;28229;48.856;9.088;2023-09-18T12:01:59;97506.28;;;18.81;95.17
42601;BME280;28229;48.856;9.088;2023-09-18T12:04:32;97524.38;;;18.84;93.74
42601;BME280;28229;48.856;9.088;2023-09-18T12:07:04;97539.31;;;18.85;93.66
42601;BME280;28229;48.856;9.088;2023-09-18T12:09:31;97515.03;;;18.87;94.00
42601;BME280;28229;48.856;9.088;2023-09-18T12:12:00;97516.91;;;18.86;94.20
42601;BME280;28229;48.856;9.088;2023-09-18T12:14:31;97511.53;;;18.91;94.16
42601;BME280;28229;48.856;9.088;2023-09-18T12:17:02;97491.22;;;18.95;94.33
42601;BME280;28229;48.856;9.088;2023-09-18T12:19:30;97496.56;;;18.95;93.56
42601;BME280;28229;48.856;9.088;2023-09-18T12:21:56;97498.81;;;18.83;94.06
42601;BME280;28229;48.856;9.088;2023-09-18T12:24:26;97503.00;;;18.89;93.75
42601;BME280;28229;48.856;9.088;2023-09-18T12:26:56;97498.13;;;18.96;92.76
42601;BME280;28229;48.856;9.088;2023-09-18T12:29:23;97493.94;;;18.90;91.97
42601;BME280;28229;48.856;9.088;2023-09-18T12:31:51;97489.41;;;18.91;91.42
42601;BME280;28229;48.856;9.088;2023-09-18T12:34:19;97482.16;;;18.96;90.40
42601;BME280;28229;48.856;9.088;2023-09-18T12:36:47;97480.97;;;19.08;90.58
42601;BME280;28229;48.856;9.088;2023-09-18T12:39:14;97467.81;;;19.16;90.48
42601;BME280;28229;48.856;9.088;2023-09-18T12:41:44;97466.63;;;19.28;90.33
42601;BME280;28229;48.856;9.088;2023-09-18T12:44:10;97473.78;;;19.32;90.11
42601;BME280;28229;48.856;9.088;2023-09-18T12:46:40;97481.06;;;19.46;88.97
42601;BME280;28229;48.856;9.088;2023-09-18T12:51:53;97481.31;;;19.68;87.04
42601;BME280;28229;48.856;9.088;2023-09-18T12:54:19;97482.28;;;19.77;86.27
42601;BME280;28229;48.856;9.088;2023-09-18T12:56:48;97478.88;;;19.91;86.31
42601;BME280;28229;48.856;9.088;2023-09-18T12:59:14;97494.47;;;19.84;86.04
42601;BME280;28229;48.856;9.088;2023-09-18T13:01:40;97487.94;;;19.95;84.30
42601;BME280;28229;48.856;9.088;2023-09-18T13:04:11;97480.91;;;19.99;83.06
42601;BME280;28229;48.856;9.088;2023-09-18T13:06:38;97477.81;;;20.11;83.15
42601;BME280;28229;48.856;9.088;2023-09-18T13:09:18;97475.84;;;20.16;83.42
42601;BME280;28229;48.856;9.088;2023-09-18T13:11:58;97450.72;;;20.17;81.11
42601;BME280;28229;48.856;9.088;2023-09-18T13:14:24;97457.09;;;20.22;79.43
42601;BME280;28229;48.856;9.088;2023-09-18T13:16:51;97456.53;;;20.39;79.36
42601;BME280;28229;48.856;9.088;2023-09-18T13:19:19;97452.84;;;20.53;77.94